Stockton, CA (95201)

9:42 PM PDT on June 23, 2017 (GMT -0700)
Monte Diablo-Ryde Ave | | Change Station
Active Advisory: Heat Advisory

Elev 14 ft 37.96 °N, 121.33 °W | Updated 12 minutes ago

Clear
Clear
78.6 °F
Feels Like 80 °F
N
1.7
Wind Variable Wind from West

Today
High -- | Low -- °F
--% Chance of Precip.
Yesterday
High -- | Low -- °F
Precip. -- in
Pressure 29.81 in
Visibility 10.0 miles
Clouds Clear
Heat Index 80 °F
Dew Point 60 °F
Humidity 53%
Rainfall 0.00 in
Snow Depth Not available.
5:43 AM 8:31 PM
New Moon, 0% visible
METAR KSCK 240355Z 31009KT 10SM CLR 28/16 A2981 RMK AO2 SLP095 T02830156
Pressure 29.81 in
Visibility 10.0 miles
Clouds Clear
Heat Index 80 °F
Dew Point 60 °F
Humidity 53%
Rainfall 0.00 in
Snow Depth Not available.
5:43 AM 8:31 PM
New Moon, 0% visible
METAR KSCK 240355Z 31009KT 10SM CLR 28/16 A2981 RMK AO2 SLP095 T02830156

Get Your Daily Forecast Email!

Thanks for signing up!

Be on the lookout for a verification email in your inbox.

You'll start receiving severe weather alerts in your inbox..

×

10-Day Weather Forecast

Almanac

Astronomy

Jun. 23, 2017 Rise Set
Actual Time
Civil Twilight
Nautical Twilight
Astronomical Twilight
Moon
Length of Visible Light
Length of Day
Tomorrow will be .
, % of the Moon is Illuminated

Today's Extremes

State Highs State Lows

Community

WunderPhotos

Category 6

Welcome to Category 6. This is the collective home for Weather Underground's featured writeups by Dr. Jeff Masters (right), Bob Henson (left), Chris Burt, and other regular contributors.

Nearby

Air Quality

  Air Quality AQ Index Pollutant
Not available.

Snow Depth

Station Depth Elevation

Earthquake Activity

City Distance Mag. Time & Date
Minimum magnitude displayed is 2.5.

Coastal Water Temperatures

Place Temperature

Stations

Nearby Weather Stations

Station Location Temp. Windchill Dew Point Humidity Wind Precip. Elev Updated Type
                   

Watches & Warnings

Heat Advisory
Issued: 3:00 PM PDT Jun. 23, 2017 – National Weather Service

... Heat advisory remains in effect until 11 PM PDT this evening...

* temperature... maximum temperatures in the upper 90s to 105 in
the northern San Joaquin Valley this afternoon with very warm
highs again in the mountains.

* Impacts... long outdoor exposure will increase chances for heat
related illness, especially for sensitive groups and people
without access to ac. Heat stress possible for livestock with
limited relief from the heat overnight. Area waterways running
very cold and fast, increasing risk for hypothermia and water
rescues.

Precautionary/preparedness actions...

A heat advisory means that a period of hot temperatures is
expected. Very hot temperatures can create a situation in which
heat illness is possible. Drink plenty of fluids, stay in an air-
conditioned room, stay out of the sun, and check up on relatives
and neighbors.


Interact with US via social media
www.Facebook.Com/NWS.Sacramento
www.Twitter.Com/nwssacramento